sensor_id;sensor_type;location;lat;lon;timestamp;pressure;altitude;pressure_sealevel;temperature;humidity
1401;BME280;46518;48.842;8.926;2022-12-26T00:02:09;97065.44;;;11.78;68.40
1401;BME280;46518;48.842;8.926;2022-12-26T00:04:37;97061.47;;;11.75;68.60
1401;BME280;46518;48.842;8.926;2022-12-26T00:07:16;97068.34;;;11.76;68.66
1401;BME280;46518;48.842;8.926;2022-12-26T00:09:44;97078.59;;;11.73;68.64
1401;BME280;46518;48.842;8.926;2022-12-26T00:12:13;97079.16;;;11.80;68.47
1401;BME280;46518;48.842;8.926;2022-12-26T00:14:42;97058.56;;;11.72;67.89
1401;BME280;46518;48.842;8.926;2022-12-26T00:17:10;97075.22;;;11.82;68.60
1401;BME280;46518;48.842;8.926;2022-12-26T00:19:38;97072.59;;;11.82;68.51
1401;BME280;46518;48.842;8.926;2022-12-26T00:22:06;97069.16;;;11.82;68.53
1401;BME280;46518;48.842;8.926;2022-12-26T00:24:36;97071.00;;;11.81;68.47
1401;BME280;46518;48.842;8.926;2022-12-26T00:27:04;97080.50;;;11.82;68.73
1401;BME280;46518;48.842;8.926;2022-12-26T00:29:33;97074.13;;;11.73;68.92
1401;BME280;46518;48.842;8.926;2022-12-26T00:32:01;97077.97;;;11.60;69.81
1401;BME280;46518;48.842;8.926;2022-12-26T00:34:30;97078.56;;;11.68;69.48
1401;BME280;46518;48.842;8.926;2022-12-26T00:36:58;97076.97;;;11.66;69.86
1401;BME280;46518;48.842;8.926;2022-12-26T00:39:26;97076.69;;;11.68;69.38
1401;BME280;46518;48.842;8.926;2022-12-26T00:41:54;97068.53;;;11.64;69.64
1401;BME280;46518;48.842;8.926;2022-12-26T00:44:22;97061.16;;;11.66;69.76
1401;BME280;46518;48.842;8.926;2022-12-26T00:46:53;97043.66;;;11.55;69.46
1401;BME280;46518;48.842;8.926;2022-12-26T00:49:22;97070.41;;;11.69;69.80
1401;BME280;46518;48.842;8.926;2022-12-26T00:51:50;97076.44;;;11.64;69.97
1401;BME280;46518;48.842;8.926;2022-12-26T00:54:18;97070.66;;;11.68;70.04
1401;BME280;46518;48.842;8.926;2022-12-26T00:56:46;97081.81;;;11.80;69.25
1401;BME280;46518;48.842;8.926;2022-12-26T00:59:14;97075.72;;;11.74;69.10
1401;BME280;46518;48.842;8.926;2022-12-26T01:01:42;97065.72;;;11.76;69.53
1401;BME280;46518;48.842;8.926;2022-12-26T01:04:12;97075.78;;;11.84;68.91
1401;BME280;46518;48.842;8.926;2022-12-26T01:06:41;97074.19;;;11.83;69.22
1401;BME280;46518;48.842;8.926;2022-12-26T01:09:08;97079.19;;;11.85;68.79
1401;BME280;46518;48.842;8.926;2022-12-26T01:11:37;97074.25;;;11.89;68.76
1401;BME280;46518;48.842;8.926;2022-12-26T01:14:11;97076.56;;;11.85;68.80
1401;BME280;46518;48.842;8.926;2022-12-26T01:16:41;97073.72;;;11.86;69.00
1401;BME280;46518;48.842;8.926;2022-12-26T01:19:10;97067.88;;;11.84;69.36
1401;BME280;46518;48.842;8.926;2022-12-26T01:21:42;97065.28;;;11.90;69.43
1401;BME280;46518;48.842;8.926;2022-12-26T01:24:10;97064.78;;;11.93;68.82
1401;BME280;46518;48.842;8.926;2022-12-26T01:26:39;97069.56;;;11.96;68.82
1401;BME280;46518;48.842;8.926;2022-12-26T01:29:08;97061.88;;;11.94;69.10
1401;BME280;46518;48.842;8.926;2022-12-26T01:31:36;97066.09;;;11.95;69.33
1401;BME280;46518;48.842;8.926;2022-12-26T01:34:04;97062.88;;;11.88;69.14
1401;BME280;46518;48.842;8.926;2022-12-26T01:36:32;97069.25;;;11.92;69.39
1401;BME280;46518;48.842;8.926;2022-12-26T01:39:02;97082.16;;;11.89;69.56
1401;BME280;46518;48.842;8.926;2022-12-26T01:41:30;97075.03;;;11.89;69.65
1401;BME280;46518;48.842;8.926;2022-12-26T01:44:00;97071.94;;;11.97;68.88
1401;BME280;46518;48.842;8.926;2022-12-26T01:46:31;97058.34;;;11.78;69.38
1401;BME280;46518;48.842;8.926;2022-12-26T01:49:05;97083.13;;;11.82;69.70
1401;BME280;46518;48.842;8.926;2022-12-26T01:51:37;97071.56;;;11.83;69.78
1401;BME280;46518;48.842;8.926;2022-12-26T01:54:09;97087.63;;;11.82;69.47
1401;BME280;46518;48.842;8.926;2022-12-26T01:56:59;97081.78;;;11.75;69.75
1401;BME280;46518;48.842;8.926;2022-12-26T01:59:31;97078.06;;;11.71;70.28
1401;BME280;46518;48.842;8.926;2022-12-26T02:02:03;97084.63;;;11.68;70.06
1401;BME280;46518;48.842;8.926;2022-12-26T02:04:34;97084.34;;;11.64;70.44
1401;BME280;46518;48.842;8.926;2022-12-26T02:07:21;97081.66;;;11.59;70.36
1401;BME280;46518;48.842;8.926;2022-12-26T02:09:51;97078.41;;;11.47;70.67
1401;BME280;46518;48.842;8.926;2022-12-26T02:12:23;97080.25;;;11.47;70.87
1401;BME280;46518;48.842;8.926;2022-12-26T02:15:05;97073.63;;;11.44;70.99
1401;BME280;46518;48.842;8.926;2022-12-26T02:17:36;97063.03;;;11.34;71.49
1401;BME280;46518;48.842;8.926;2022-12-26T02:20:12;97093.03;;;11.33;71.70
1401;BME280;46518;48.842;8.926;2022-12-26T02:23:19;97089.38;;;11.34;72.15
1401;BME280;46518;48.842;8.926;2022-12-26T02:26:23;97092.00;;;11.34;71.51
1401;BME280;46518;48.842;8.926;2022-12-26T02:29:12;97067.69;;;11.27;71.87
1401;BME280;46518;48.842;8.926;2022-12-26T02:31:48;97101.16;;;11.26;72.21
1401;BME280;46518;48.842;8.926;2022-12-26T02:34:22;97091.38;;;11.21;72.48
1401;BME280;46518;48.842;8.926;2022-12-26T02:37:22;97103.47;;;11.22;72.36
1401;BME280;46518;48.842;8.926;2022-12-26T02:40:02;97086.09;;;11.21;73.09
1401;BME280;46518;48.842;8.926;2022-12-26T02:42:38;97092.44;;;11.26;72.68
1401;BME280;46518;48.842;8.926;2022-12-26T02:45:16;97102.19;;;11.25;72.63
1401;BME280;46518;48.842;8.926;2022-12-26T02:48:11;97102.50;;;11.29;72.72
1401;BME280;46518;48.842;8.926;2022-12-26T02:50:51;97100.41;;;11.31;72.58
1401;BME280;46518;48.842;8.926;2022-12-26T02:53:47;97102.00;;;11.32;72.36
1401;BME280;46518;48.842;8.926;2022-12-26T02:56:42;97105.38;;;11.27;72.16
1401;BME280;46518;48.842;8.926;2022-12-26T02:59:31;97113.50;;;11.26;72.28
1401;BME280;46518;48.842;8.926;2022-12-26T03:02:36;97112.22;;;11.28;72.08
1401;BME280;46518;48.842;8.926;2022-12-26T03:05:28;97104.59;;;11.27;72.01
1401;BME280;46518;48.842;8.926;2022-12-26T03:08:20;97101.91;;;11.21;72.23
1401;BME280;46518;48.842;8.926;2022-12-26T03:11:12;97098.66;;;11.14;73.01
1401;BME280;46518;48.842;8.926;2022-12-26T03:14:04;97097.50;;;11.05;73.42
1401;BME280;46518;48.842;8.926;2022-12-26T03:16:34;97096.78;;;11.10;73.09
1401;BME280;46518;48.842;8.926;2022-12-26T03:19:20;97088.03;;;11.04;73.27
1401;BME280;46518;48.842;8.926;2022-12-26T03:21:51;97073.81;;;11.05;73.61
1401;BME280;46518;48.842;8.926;2022-12-26T03:24:20;97078.53;;;11.03;73.41
1401;BME280;46518;48.842;8.926;2022-12-26T03:26:51;97070.56;;;10.98;74.06
1401;BME280;46518;48.842;8.926;2022-12-26T03:29:22;97053.47;;;11.00;73.58
1401;BME280;46518;48.842;8.926;2022-12-26T03:32:13;97070.34;;;10.99;73.79
1401;BME280;46518;48.842;8.926;2022-12-26T03:34:43;97072.75;;;11.01;73.74
1401;BME280;46518;48.842;8.926;2022-12-26T03:37:26;97056.44;;;11.04;73.86
1401;BME280;46518;48.842;8.926;2022-12-26T03:40:24;97055.38;;;11.05;73.74
1401;BME280;46518;48.842;8.926;2022-12-26T03:43:19;97056.97;;;11.06;73.88
1401;BME280;46518;48.842;8.926;2022-12-26T03:46:15;97061.25;;;11.12;74.13
1401;BME280;46518;48.842;8.926;2022-12-26T03:49:06;97065.47;;;11.13;74.32
1401;BME280;46518;48.842;8.926;2022-12-26T03:52:23;97072.88;;;11.16;74.03
1401;BME280;46518;48.842;8.926;2022-12-26T03:55:14;97065.25;;;11.20;73.96
1401;BME280;46518;48.842;8.926;2022-12-26T03:58:05;97050.75;;;11.17;73.60
1401;BME280;46518;48.842;8.926;2022-12-26T04:00:53;97066.91;;;11.26;73.54
1401;BME280;46518;48.842;8.926;2022-12-26T04:03:43;97070.13;;;11.33;73.09
1401;BME280;46518;48.842;8.926;2022-12-26T04:06:32;97070.13;;;11.33;73.37
1401;BME280;46518;48.842;8.926;2022-12-26T04:09:25;97079.63;;;11.34;73.43
1401;BME280;46518;48.842;8.926;2022-12-26T04:12:17;97086.22;;;11.37;73.14
1401;BME280;46518;48.842;8.926;2022-12-26T04:15:12;97084.69;;;11.41;73.03
1401;BME280;46518;48.842;8.926;2022-12-26T04:18:07;97087.09;;;11.48;72.54
1401;BME280;46518;48.842;8.926;2022-12-26T04:21:03;97084.72;;;11.46;72.30
1401;BME280;46518;48.842;8.926;2022-12-26T04:23:38;97080.28;;;11.52;72.28
1401;BME280;46518;48.842;8.926;2022-12-26T04:26:29;97079.00;;;11.54;72.24
1401;BME280;46518;48.842;8.926;2022-12-26T04:29:17;97073.91;;;11.48;72.03
1401;BME280;46518;48.842;8.926;2022-12-26T04:32:09;97081.88;;;11.53;72.12
1401;BME280;46518;48.842;8.926;2022-12-26T04:35:00;97092.97;;;11.55;71.85
1401;BME280;46518;48.842;8.926;2022-12-26T04:37:49;97086.69;;;11.61;71.63
1401;BME280;46518;48.842;8.926;2022-12-26T04:40:43;97087.72;;;11.60;71.81
1401;BME280;46518;48.842;8.926;2022-12-26T04:43:32;97080.09;;;11.58;71.85
1401;BME280;46518;48.842;8.926;2022-12-26T04:46:19;97078.75;;;11.56;71.93
1401;BME280;46518;48.842;8.926;2022-12-26T04:48:52;97081.88;;;11.53;71.78
1401;BME280;46518;48.842;8.926;2022-12-26T04:51:38;97071.63;;;11.56;72.07
1401;BME280;46518;48.842;8.926;2022-12-26T04:54:07;97062.09;;;11.50;71.85
1401;BME280;46518;48.842;8.926;2022-12-26T04:56:36;97077.63;;;11.47;72.23
1401;BME280;46518;48.842;8.926;2022-12-26T04:59:05;97085.75;;;11.45;72.49
1401;BME280;46518;48.842;8.926;2022-12-26T05:01:34;97082.09;;;11.46;72.63
1401;BME280;46518;48.842;8.926;2022-12-26T05:04:45;97076.19;;;11.34;72.49
1401;BME280;46518;48.842;8.926;2022-12-26T05:07:33;97088.34;;;11.40;73.28
1401;BME280;46518;48.842;8.926;2022-12-26T05:10:40;97085.47;;;11.41;72.53
1401;BME280;46518;48.842;8.926;2022-12-26T05:13:08;97082.09;;;11.46;72.71
1401;BME280;46518;48.842;8.926;2022-12-26T05:15:37;97093.13;;;11.43;72.99
1401;BME280;46518;48.842;8.926;2022-12-26T05:18:19;97070.88;;;11.29;73.51
1401;BME280;46518;48.842;8.926;2022-12-26T05:21:06;97081.81;;;11.48;73.05
1401;BME280;46518;48.842;8.926;2022-12-26T05:23:55;97098.19;;;11.50;73.50
1401;BME280;46518;48.842;8.926;2022-12-26T05:26:40;97096.38;;;11.55;73.24
1401;BME280;46518;48.842;8.926;2022-12-26T05:29:25;97097.94;;;11.51;73.44
1401;BME280;46518;48.842;8.926;2022-12-26T05:31:55;97087.66;;;11.50;73.39
1401;BME280;46518;48.842;8.926;2022-12-26T05:34:41;97091.09;;;11.55;73.48
1401;BME280;46518;48.842;8.926;2022-12-26T05:37:08;97094.34;;;11.62;72.81
1401;BME280;46518;48.842;8.926;2022-12-26T05:39:36;97106.22;;;11.65;72.78
1401;BME280;46518;48.842;8.926;2022-12-26T05:42:04;97107.47;;;11.57;72.73
1401;BME280;46518;48.842;8.926;2022-12-26T05:44:32;97114.66;;;11.67;72.63
1401;BME280;46518;48.842;8.926;2022-12-26T05:47:02;97102.31;;;11.73;71.97
1401;BME280;46518;48.842;8.926;2022-12-26T05:49:30;97085.09;;;11.60;72.31
1401;BME280;46518;48.842;8.926;2022-12-26T05:51:58;97100.22;;;11.75;71.89
1401;BME280;46518;48.842;8.926;2022-12-26T05:54:26;97097.88;;;11.73;72.37
1401;BME280;46518;48.842;8.926;2022-12-26T05:56:54;97081.47;;;11.66;72.14
1401;BME280;46518;48.842;8.926;2022-12-26T05:59:22;97101.06;;;11.80;72.03
1401;BME280;46518;48.842;8.926;2022-12-26T06:01:50;97108.22;;;11.85;72.27
1401;BME280;46518;48.842;8.926;2022-12-26T06:04:20;97105.56;;;11.85;72.32
1401;BME280;46518;48.842;8.926;2022-12-26T06:07:07;97106.72;;;11.94;71.93
1401;BME280;46518;48.842;8.926;2022-12-26T06:09:35;97111.75;;;11.96;71.87
1401;BME280;46518;48.842;8.926;2022-12-26T06:12:03;97099.88;;;11.93;71.99
1401;BME280;46518;48.842;8.926;2022-12-26T06:14:31;97089.25;;;11.88;71.45
1401;BME280;46518;48.842;8.926;2022-12-26T06:16:59;97106.16;;;11.87;71.57
1401;BME280;46518;48.842;8.926;2022-12-26T06:19:29;97106.94;;;11.87;71.83
1401;BME280;46518;48.842;8.926;2022-12-26T06:21:57;97100.56;;;11.83;71.43
1401;BME280;46518;48.842;8.926;2022-12-26T06:24:25;97104.53;;;11.86;71.80
1401;BME280;46518;48.842;8.926;2022-12-26T06:26:53;97106.63;;;11.84;71.60
1401;BME280;46518;48.842;8.926;2022-12-26T06:29:21;97083.34;;;11.71;72.12
1401;BME280;46518;48.842;8.926;2022-12-26T06:32:10;97098.31;;;11.65;72.35
1401;BME280;46518;48.842;8.926;2022-12-26T06:34:40;97090.41;;;11.65;72.35
1401;BME280;46518;48.842;8.926;2022-12-26T06:37:08;97098.84;;;11.67;72.58
1401;BME280;46518;48.842;8.926;2022-12-26T06:39:36;97098.78;;;11.57;73.13
1401;BME280;46518;48.842;8.926;2022-12-26T06:42:05;97105.94;;;11.61;73.33
1401;BME280;46518;48.842;8.926;2022-12-26T06:44:33;97108.25;;;11.58;73.48
1401;BME280;46518;48.842;8.926;2022-12-26T06:47:01;97106.72;;;11.62;73.58
1401;BME280;46518;48.842;8.926;2022-12-26T06:49:29;97100.13;;;11.59;73.49
1401;BME280;46518;48.842;8.926;2022-12-26T06:52:20;97104.88;;;11.62;73.59
1401;BME280;46518;48.842;8.926;2022-12-26T06:54:51;97120.44;;;11.64;73.60
1401;BME280;46518;48.842;8.926;2022-12-26T06:57:19;97120.69;;;11.62;73.67
1401;BME280;46518;48.842;8.926;2022-12-26T06:59:47;97112.53;;;11.64;73.05
1401;BME280;46518;48.842;8.926;2022-12-26T07:02:16;97124.94;;;11.63;73.24
1401;BME280;46518;48.842;8.926;2022-12-26T07:04:44;97132.88;;;11.69;73.69
1401;BME280;46518;48.842;8.926;2022-12-26T07:07:12;97135.00;;;11.72;73.35
1401;BME280;46518;48.842;8.926;2022-12-26T07:09:41;97134.97;;;11.66;73.33
1401;BME280;46518;48.842;8.926;2022-12-26T07:12:09;97130.69;;;11.60;73.49
1401;BME280;46518;48.842;8.926;2022-12-26T07:14:38;97117.00;;;11.58;74.06
1401;BME280;46518;48.842;8.926;2022-12-26T07:17:08;97126.66;;;11.53;74.64
1401;BME280;46518;48.842;8.926;2022-12-26T07:19:36;97118.16;;;11.45;75.71
1401;BME280;46518;48.842;8.926;2022-12-26T07:22:05;97116.03;;;11.42;76.10
1401;BME280;46518;48.842;8.926;2022-12-26T07:24:35;97146.41;;;11.50;76.38
1401;BME280;46518;48.842;8.926;2022-12-26T07:27:04;97136.22;;;11.59;76.69
1401;BME280;46518;48.842;8.926;2022-12-26T07:29:32;97115.00;;;11.43;76.58
1401;BME280;46518;48.842;8.926;2022-12-26T07:32:00;97133.09;;;11.62;76.13
1401;BME280;46518;48.842;8.926;2022-12-26T07:34:28;97120.88;;;11.51;76.49
1401;BME280;46518;48.842;8.926;2022-12-26T07:36:58;97131.78;;;11.64;76.53
1401;BME280;46518;48.842;8.926;2022-12-26T07:39:27;97137.34;;;11.68;77.07
1401;BME280;46518;48.842;8.926;2022-12-26T07:41:55;97143.59;;;11.57;76.84
1401;BME280;46518;48.842;8.926;2022-12-26T07:44:28;97149.22;;;11.38;77.78
1401;BME280;46518;48.842;8.926;2022-12-26T07:46:58;97123.81;;;11.27;78.68
1401;BME280;46518;48.842;8.926;2022-12-26T07:49:26;97113.03;;;11.29;78.34
1401;BME280;46518;48.842;8.926;2022-12-26T07:51:54;97133.19;;;11.45;78.33
1401;BME280;46518;48.842;8.926;2022-12-26T07:54:22;97137.22;;;11.53;78.45
1401;BME280;46518;48.842;8.926;2022-12-26T07:56:53;97133.28;;;11.55;77.96
1401;BME280;46518;48.842;8.926;2022-12-26T07:59:46;97131.50;;;11.61;77.95
1401;BME280;46518;48.842;8.926;2022-12-26T08:02:21;97133.59;;;11.59;77.59
1401;BME280;46518;48.842;8.926;2022-12-26T08:04:50;97119.47;;;11.43;77.29
1401;BME280;46518;48.842;8.926;2022-12-26T08:07:18;97140.06;;;11.46;76.96
1401;BME280;46518;48.842;8.926;2022-12-26T08:09:46;97155.13;;;11.51;77.53
1401;BME280;46518;48.842;8.926;2022-12-26T08:12:14;97150.09;;;11.49;77.00
1401;BME280;46518;48.842;8.926;2022-12-26T08:14:42;97148.06;;;11.56;76.98
1401;BME280;46518;48.842;8.926;2022-12-26T08:17:12;97152.09;;;11.64;76.44
1401;BME280;46518;48.842;8.926;2022-12-26T08:19:40;97149.91;;;11.56;76.11
1401;BME280;46518;48.842;8.926;2022-12-26T08:22:08;97156.69;;;11.47;76.21
1401;BME280;46518;48.842;8.926;2022-12-26T08:24:36;97134.13;;;11.29;76.23
1401;BME280;46518;48.842;8.926;2022-12-26T08:27:14;97153.91;;;11.31;77.00
1401;BME280;46518;48.842;8.926;2022-12-26T08:29:42;97178.75;;;11.40;76.82
1401;BME280;46518;48.842;8.926;2022-12-26T08:32:12;97191.69;;;11.42;76.96
1401;BME280;46518;48.842;8.926;2022-12-26T08:34:40;97195.69;;;11.50;77.18
1401;BME280;46518;48.842;8.926;2022-12-26T08:37:08;97210.22;;;11.52;77.38
1401;BME280;46518;48.842;8.926;2022-12-26T08:39:37;97204.63;;;11.43;79.13
1401;BME280;46518;48.842;8.926;2022-12-26T08:42:05;97221.53;;;11.26;81.17
1401;BME280;46518;48.842;8.926;2022-12-26T08:44:33;97220.69;;;10.98;82.60
1401;BME280;46518;48.842;8.926;2022-12-26T08:47:01;97228.94;;;10.85;84.07
1401;BME280;46518;48.842;8.926;2022-12-26T08:49:34;97246.66;;;10.89;85.68
1401;BME280;46518;48.842;8.926;2022-12-26T08:52:02;97253.94;;;10.82;86.61
1401;BME280;46518;48.842;8.926;2022-12-26T08:54:30;97245.91;;;10.72;87.25
1401;BME280;46518;48.842;8.926;2022-12-26T08:56:59;97247.97;;;10.70;87.56
1401;BME280;46518;48.842;8.926;2022-12-26T08:59:28;97265.38;;;10.71;88.33
1401;BME280;46518;48.842;8.926;2022-12-26T09:01:56;97261.28;;;10.63;88.89
1401;BME280;46518;48.842;8.926;2022-12-26T09:04:24;97247.97;;;10.70;89.37
1401;BME280;46518;48.842;8.926;2022-12-26T09:06:53;97250.38;;;10.71;90.28
1401;BME280;46518;48.842;8.926;2022-12-26T09:09:40;97255.94;;;10.75;90.45
1401;BME280;46518;48.842;8.926;2022-12-26T09:12:10;97277.03;;;10.41;90.71
1401;BME280;46518;48.842;8.926;2022-12-26T09:14:38;97283.16;;;10.30;91.42
1401;BME280;46518;48.842;8.926;2022-12-26T09:17:07;97273.81;;;10.22;92.25
1401;BME280;46518;48.842;8.926;2022-12-26T09:19:35;97266.81;;;10.28;93.06
1401;BME280;46518;48.842;8.926;2022-12-26T09:22:05;97273.69;;;10.29;92.96
1401;BME280;46518;48.842;8.926;2022-12-26T09:24:50;97284.03;;;10.19;93.36
1401;BME280;46518;48.842;8.926;2022-12-26T09:27:18;97293.81;;;10.06;94.23
1401;BME280;46518;48.842;8.926;2022-12-26T09:29:47;97285.09;;;10.06;95.62
1401;BME280;46518;48.842;8.926;2022-12-26T09:32:15;97280.41;;;10.08;95.79
1401;BME280;46518;48.842;8.926;2022-12-26T09:34:47;97296.13;;;10.20;95.97
1401;BME280;46518;48.842;8.926;2022-12-26T09:37:16;97309.91;;;10.10;97.16
1401;BME280;46518;48.842;8.926;2022-12-26T09:39:44;97332.19;;;10.07;98.91
1401;BME280;46518;48.842;8.926;2022-12-26T09:42:22;97330.84;;;10.05;100.00
1401;BME280;46518;48.842;8.926;2022-12-26T09:44:57;97328.22;;;10.05;100.00
1401;BME280;46518;48.842;8.926;2022-12-26T09:47:30;97333.00;;;10.08;100.00
1401;BME280;46518;48.842;8.926;2022-12-26T09:50:10;97328.75;;;9.90;100.00
1401;BME280;46518;48.842;8.926;2022-12-26T09:52:45;97339.75;;;9.75;100.00
1401;BME280;46518;48.842;8.926;2022-12-26T09:55:26;97339.19;;;9.73;100.00
1401;BME280;46518;48.842;8.926;2022-12-26T09:57:58;97344.16;;;9.58;100.00
1401;BME280;46518;48.842;8.926;2022-12-26T10:00:30;97350.44;;;9.68;100.00
1401;BME280;46518;48.842;8.926;2022-12-26T10:03:00;97347.22;;;9.66;100.00
1401;BME280;46518;48.842;8.926;2022-12-26T10:05:34;97323.88;;;9.82;100.00
1401;BME280;46518;48.842;8.926;2022-12-26T10:08:21;97316.88;;;9.87;100.00
1401;BME280;46518;48.842;8.926;2022-12-26T10:10:58;97320.28;;;9.88;100.00
1401;BME280;46518;48.842;8.926;2022-12-26T10:13:33;97317.91;;;9.86;100.00
1401;BME280;46518;48.842;8.926;2022-12-26T10:16:08;97302.34;;;9.85;100.00
1401;BME280;46518;48.842;8.926;2022-12-26T10:18:47;97303.31;;;9.96;100.00
1401;BME280;46518;48.842;8.926;2022-12-26T10:21:28;97316.25;;;9.97;100.00
1401;BME280;46518;48.842;8.926;2022-12-26T10:24:01;97322.31;;;9.98;100.00
1401;BME280;46518;48.842;8.926;2022-12-26T10:26:34;97323.97;;;9.87;100.00
1401;BME280;46518;48.842;8.926;2022-12-26T10:29:14;97329.34;;;9.80;100.00
1401;BME280;46518;48.842;8.926;2022-12-26T10:31:55;97322.03;;;9.82;100.00
1401;BME280;46518;48.842;8.926;2022-12-26T10:34:53;97339.94;;;9.85;100.00
1401;BME280;46518;48.842;8.926;2022-12-26T10:37:30;97317.66;;;9.59;100.00
1401;BME280;46518;48.842;8.926;2022-12-26T10:40:16;97338.41;;;9.72;100.00
1401;BME280;46518;48.842;8.926;2022-12-26T10:43:00;97327.22;;;9.65;100.00
1401;BME280;46518;48.842;8.926;2022-12-26T10:46:22;97338.75;;;9.76;100.00
1401;BME280;46518;48.842;8.926;2022-12-26T10:49:03;97352.34;;;9.73;100.00
1401;BME280;46518;48.842;8.926;2022-12-26T10:51:38;97341.38;;;9.76;100.00
1401;BME280;46518;48.842;8.926;2022-12-26T10:54:15;97343.44;;;9.74;100.00
1401;BME280;46518;48.842;8.926;2022-12-26T10:56:53;97341.91;;;9.78;100.00
1401;BME280;46518;48.842;8.926;2022-12-26T10:59:40;97335.88;;;9.78;100.00
1401;BME280;46518;48.842;8.926;2022-12-26T11:02:32;97334.56;;;9.92;100.00
1401;BME280;46518;48.842;8.926;2022-12-26T11:05:07;97334.56;;;9.92;100.00
1401;BME280;46518;48.842;8.926;2022-12-26T11:08:07;97330.66;;;9.94;100.00
1401;BME280;46518;48.842;8.926;2022-12-26T11:10:38;97322.69;;;9.89;100.00
1401;BME280;46518;48.842;8.926;2022-12-26T11:13:17;97310.19;;;9.97;100.00
1401;BME280;46518;48.842;8.926;2022-12-26T11:15:50;97297.94;;;10.02;100.00
1401;BME280;46518;48.842;8.926;2022-12-26T11:18:25;97289.13;;;10.08;100.00
1401;BME280;46518;48.842;8.926;2022-12-26T11:21:11;97256.09;;;10.01;100.00
1401;BME280;46518;48.842;8.926;2022-12-26T11:23:45;97281.53;;;10.12;100.00
1401;BME280;46518;48.842;8.926;2022-12-26T11:26:24;97267.09;;;9.98;100.00
1401;BME280;46518;48.842;8.926;2022-12-26T11:29:27;97279.44;;;9.97;100.00
1401;BME280;46518;48.842;8.926;2022-12-26T11:32:03;97301.91;;;10.05;100.00
1401;BME280;46518;48.842;8.926;2022-12-26T11:34:36;97293.25;;;10.04;100.00
1401;BME280;46518;48.842;8.926;2022-12-26T11:37:24;97312.03;;;10.13;100.00
1401;BME280;46518;48.842;8.926;2022-12-26T11:39:54;97293.06;;;9.94;100.00
1401;BME280;46518;48.842;8.926;2022-12-26T11:42:25;97330.72;;;10.11;100.00
1401;BME280;46518;48.842;8.926;2022-12-26T11:45:11;97313.19;;;10.17;100.00
1401;BME280;46518;48.842;8.926;2022-12-26T11:47:43;97287.84;;;10.11;100.00
1401;BME280;46518;48.842;8.926;2022-12-26T11:50:28;97315.25;;;10.15;100.00
1401;BME280;46518;48.842;8.926;2022-12-26T11:53:05;97314.13;;;10.11;99.27
1401;BME280;46518;48.842;8.926;2022-12-26T11:55:39;97313.56;;;10.09;98.53
1401;BME280;46518;48.842;8.926;2022-12-26T11:58:17;97262.31;;;9.94;98.21
1401;BME280;46518;48.842;8.926;2022-12-26T12:01:06;97277.47;;;10.21;98.48
1401;BME280;46518;48.842;8.926;2022-12-26T12:03:40;97275.16;;;10.25;98.77
1401;BME280;46518;48.842;8.926;2022-12-26T12:06:28;97265.28;;;10.15;97.64
1401;BME280;46518;48.842;8.926;2022-12-26T12:09:06;97273.31;;;10.25;98.08
1401;BME280;46518;48.842;8.926;2022-12-26T12:11:46;97288.69;;;10.28;98.38
1401;BME280;46518;48.842;8.926;2022-12-26T12:14:29;97268.25;;;10.19;98.12
1401;BME280;46518;48.842;8.926;2022-12-26T12:17:09;97290.56;;;10.33;97.76
1401;BME280;46518;48.842;8.926;2022-12-26T12:19:58;97296.41;;;10.35;98.26
1401;BME280;46518;48.842;8.926;2022-12-26T12:22:47;97303.72;;;10.33;96.90
1401;BME280;46518;48.842;8.926;2022-12-26T12:25:45;97310.97;;;10.43;96.72
1401;BME280;46518;48.842;8.926;2022-12-26T12:28:30;97303.00;;;10.38;96.41
1401;BME280;46518;48.842;8.926;2022-12-26T12:31:31;97296.00;;;10.43;95.65
1401;BME280;46518;48.842;8.926;2022-12-26T12:34:20;97299.97;;;10.46;95.85
1401;BME280;46518;48.842;8.926;2022-12-26T12:37:01;97289.78;;;10.49;94.66
1401;BME280;46518;48.842;8.926;2022-12-26T12:39:42;97288.09;;;10.43;95.50
1401;BME280;46518;48.842;8.926;2022-12-26T12:42:34;97290.28;;;10.46;94.82
1401;BME280;46518;48.842;8.926;2022-12-26T12:45:21;97290.50;;;10.45;94.17
1401;BME280;46518;48.842;8.926;2022-12-26T12:48:07;97285.00;;;10.46;94.59
1401;BME280;46518;48.842;8.926;2022-12-26T12:50:52;97278.94;;;10.46;94.91
1401;BME280;46518;48.842;8.926;2022-12-26T12:53:37;97280.53;;;10.47;94.54
1401;BME280;46518;48.842;8.926;2022-12-26T12:56:22;97280.13;;;10.55;94.50
1401;BME280;46518;48.842;8.926;2022-12-26T12:59:14;97271.44;;;10.54;93.99
1401;BME280;46518;48.842;8.926;2022-12-26T13:01:56;97276.78;;;10.60;92.80
1401;BME280;46518;48.842;8.926;2022-12-26T13:04:40;97276.84;;;10.65;93.12
1401;BME280;46518;48.842;8.926;2022-12-26T13:07:22;97286.59;;;10.64;92.76
1401;BME280;46518;48.842;8.926;2022-12-26T13:09:56;97274.22;;;10.65;92.48
1401;BME280;46518;48.842;8.926;2022-12-26T13:12:34;97285.31;;;10.67;92.57
1401;BME280;46518;48.842;8.926;2022-12-26T13:15:20;97275.41;;;10.74;92.13
1401;BME280;46518;48.842;8.926;2022-12-26T13:17:58;97269.09;;;10.75;91.62
1401;BME280;46518;48.842;8.926;2022-12-26T13:20:37;97258.81;;;10.73;92.00
1401;BME280;46518;48.842;8.926;2022-12-26T13:23:17;97255.69;;;10.76;91.81
1401;BME280;46518;48.842;8.926;2022-12-26T13:26:15;97262.06;;;10.80;90.97
1401;BME280;46518;48.842;8.926;2022-12-26T13:28:53;97251.78;;;10.79;91.29
1401;BME280;46518;48.842;8.926;2022-12-26T13:31:31;97243.50;;;10.70;91.09
1401;BME280;46518;48.842;8.926;2022-12-26T13:34:03;97256.56;;;10.82;90.95
1401;BME280;46518;48.842;8.926;2022-12-26T13:36:39;97263.19;;;10.85;91.26
1401;BME280;46518;48.842;8.926;2022-12-26T13:42:31;97257.47;;;10.93;90.50
1401;BME280;46518;48.842;8.926;2022-12-26T13:45:48;97253.22;;;10.87;90.85
1401;BME280;46518;48.842;8.926;2022-12-26T13:51:55;97248.22;;;10.90;90.13
1401;BME280;46518;48.842;8.926;2022-12-26T13:54:29;97253.28;;;10.92;89.84
1401;BME280;46518;48.842;8.926;2022-12-26T14:00:16;97257.03;;;10.96;89.91
1401;BME280;46518;48.842;8.926;2022-12-26T14:03:42;97256.19;;;10.95;89.24
1401;BME280;46518;48.842;8.926;2022-12-26T14:06:27;97259.66;;;10.96;88.68
1401;BME280;46518;48.842;8.926;2022-12-26T14:09:15;97242.81;;;10.97;89.45
1401;BME280;46518;48.842;8.926;2022-12-26T14:14:55;97247.91;;;11.04;88.99
1401;BME280;46518;48.842;8.926;2022-12-26T14:17:36;97255.13;;;11.13;88.25